sensor_id;sensor_type;location;lat;lon;timestamp;temperature;humidity
24148;DHT22;12309;51.450;-2.624;2022-09-16T00:02:03;12.00;99.90
24148;DHT22;12309;51.450;-2.624;2022-09-16T00:04:29;11.90;99.90
24148;DHT22;12309;51.450;-2.624;2022-09-16T00:09:20;12.10;99.90
24148;DHT22;12309;51.450;-2.624;2022-09-16T00:11:46;12.00;99.90
24148;DHT22;12309;51.450;-2.624;2022-09-16T00:14:12;12.10;99.90
24148;DHT22;12309;51.450;-2.624;2022-09-16T00:16:37;11.90;99.90
24148;DHT22;12309;51.450;-2.624;2022-09-16T00:19:03;10.90;99.90
24148;DHT22;12309;51.450;-2.624;2022-09-16T00:21:29;12.10;99.90
24148;DHT22;12309;51.450;-2.624;2022-09-16T00:23:55;11.90;99.90
24148;DHT22;12309;51.450;-2.624;2022-09-16T00:26:22;11.90;99.90
24148;DHT22;12309;51.450;-2.624;2022-09-16T00:28:48;11.90;99.90
24148;DHT22;12309;51.450;-2.624;2022-09-16T00:31:15;11.80;99.90
24148;DHT22;12309;51.450;-2.624;2022-09-16T00:33:41;11.80;99.90
24148;DHT22;12309;51.450;-2.624;2022-09-16T00:36:16;11.80;99.90
24148;DHT22;12309;51.450;-2.624;2022-09-16T00:38:42;10.90;99.90
24148;DHT22;12309;51.450;-2.624;2022-09-16T00:41:17;11.70;99.90
24148;DHT22;12309;51.450;-2.624;2022-09-16T00:46:22;11.70;99.90
24148;DHT22;12309;51.450;-2.624;2022-09-16T00:48:50;11.50;99.90
24148;DHT22;12309;51.450;-2.624;2022-09-16T00:51:19;11.60;99.90
24148;DHT22;12309;51.450;-2.624;2022-09-16T00:53:59;11.60;99.90
24148;DHT22;12309;51.450;-2.624;2022-09-16T00:56:28;11.70;99.90
24148;DHT22;12309;51.450;-2.624;2022-09-16T01:01:29;11.60;99.90
24148;DHT22;12309;51.450;-2.624;2022-09-16T01:04:05;11.50;99.90
24148;DHT22;12309;51.450;-2.624;2022-09-16T01:06:36;11.50;99.90
24148;DHT22;12309;51.450;-2.624;2022-09-16T01:09:03;11.60;99.90
24148;DHT22;12309;51.450;-2.624;2022-09-16T01:11:29;11.60;99.90
24148;DHT22;12309;51.450;-2.624;2022-09-16T01:13:55;12.10;99.90
24148;DHT22;12309;51.450;-2.624;2022-09-16T01:16:45;11.50;99.90
24148;DHT22;12309;51.450;-2.624;2022-09-16T01:22:05;11.40;99.90
24148;DHT22;12309;51.450;-2.624;2022-09-16T01:25:05;11.50;99.90
24148;DHT22;12309;51.450;-2.624;2022-09-16T01:27:36;11.50;99.90
24148;DHT22;12309;51.450;-2.624;2022-09-16T01:41:24;11.40;99.90
24148;DHT22;12309;51.450;-2.624;2022-09-16T01:44:02;11.40;99.90
24148;DHT22;12309;51.450;-2.624;2022-09-16T01:51:32;11.40;99.90
24148;DHT22;12309;51.450;-2.624;2022-09-16T01:56:52;11.40;99.90
24148;DHT22;12309;51.450;-2.624;2022-09-16T02:02:16;11.20;99.90
24148;DHT22;12309;51.450;-2.624;2022-09-16T02:04:48;11.30;99.90
24148;DHT22;12309;51.450;-2.624;2022-09-16T02:07:17;11.20;99.90
24148;DHT22;12309;51.450;-2.624;2022-09-16T02:09:47;11.10;99.90
24148;DHT22;12309;51.450;-2.624;2022-09-16T02:12:20;11.10;99.90
24148;DHT22;12309;51.450;-2.624;2022-09-16T02:14:48;11.00;99.90
24148;DHT22;12309;51.450;-2.624;2022-09-16T02:17:16;11.20;99.90
24148;DHT22;12309;51.450;-2.624;2022-09-16T02:20:06;11.00;99.90
24148;DHT22;12309;51.450;-2.624;2022-09-16T02:22:48;7.80;99.90
24148;DHT22;12309;51.450;-2.624;2022-09-16T02:25:17;11.00;99.90
24148;DHT22;12309;51.450;-2.624;2022-09-16T02:27:45;11.00;99.90
24148;DHT22;12309;51.450;-2.624;2022-09-16T02:30:15;11.10;99.90
24148;DHT22;12309;51.450;-2.624;2022-09-16T02:32:55;11.10;99.90
24148;DHT22;12309;51.450;-2.624;2022-09-16T02:35:23;11.20;99.90
24148;DHT22;12309;51.450;-2.624;2022-09-16T02:38:03;11.50;99.90
24148;DHT22;12309;51.450;-2.624;2022-09-16T02:40:34;11.40;99.90
24148;DHT22;12309;51.450;-2.624;2022-09-16T02:43:02;11.40;99.90
24148;DHT22;12309;51.450;-2.624;2022-09-16T02:45:46;11.60;99.90
24148;DHT22;12309;51.450;-2.624;2022-09-16T02:51:14;11.60;99.90
24148;DHT22;12309;51.450;-2.624;2022-09-16T02:54:32;11.50;99.90
24148;DHT22;12309;51.450;-2.624;2022-09-16T02:56:39;11.70;99.90
24148;DHT22;12309;51.450;-2.624;2022-09-16T02:59:07;11.80;99.90
24148;DHT22;12309;51.450;-2.624;2022-09-16T03:01:41;11.90;99.90
24148;DHT22;12309;51.450;-2.624;2022-09-16T03:04:11;11.90;99.90
24148;DHT22;12309;51.450;-2.624;2022-09-16T03:06:37;12.10;99.90
24148;DHT22;12309;51.450;-2.624;2022-09-16T03:09:06;12.10;99.90
24148;DHT22;12309;51.450;-2.624;2022-09-16T03:12:07;12.10;99.90
24148;DHT22;12309;51.450;-2.624;2022-09-16T03:20:21;12.10;99.90
24148;DHT22;12309;51.450;-2.624;2022-09-16T03:26:00;12.20;99.90
24148;DHT22;12309;51.450;-2.624;2022-09-16T03:36:22;12.10;99.90
24148;DHT22;12309;51.450;-2.624;2022-09-16T03:38:51;12.00;99.90
24148;DHT22;12309;51.450;-2.624;2022-09-16T03:41:18;12.10;99.90
24148;DHT22;12309;51.450;-2.624;2022-09-16T03:43:54;12.00;99.90
24148;DHT22;12309;51.450;-2.624;2022-09-16T03:46:21;12.10;99.90
24148;DHT22;12309;51.450;-2.624;2022-09-16T03:48:46;12.20;99.90
24148;DHT22;12309;51.450;-2.624;2022-09-16T03:51:12;12.10;99.90
24148;DHT22;12309;51.450;-2.624;2022-09-16T03:53:38;12.10;99.90
24148;DHT22;12309;51.450;-2.624;2022-09-16T03:56:04;12.10;99.90
24148;DHT22;12309;51.450;-2.624;2022-09-16T04:00:56;12.10;99.90
24148;DHT22;12309;51.450;-2.624;2022-09-16T04:03:21;12.20;99.90
24148;DHT22;12309;51.450;-2.624;2022-09-16T04:05:52;12.00;99.90
24148;DHT22;12309;51.450;-2.624;2022-09-16T04:08:18;12.10;99.90
24148;DHT22;12309;51.450;-2.624;2022-09-16T04:10:53;12.20;99.90
24148;DHT22;12309;51.450;-2.624;2022-09-16T04:13:19;11.80;99.90
24148;DHT22;12309;51.450;-2.624;2022-09-16T04:18:10;11.80;99.90
24148;DHT22;12309;51.450;-2.624;2022-09-16T04:20:36;11.80;99.90
24148;DHT22;12309;51.450;-2.624;2022-09-16T04:23:01;11.60;99.90
24148;DHT22;12309;51.450;-2.624;2022-09-16T04:27:54;11.70;99.90
24148;DHT22;12309;51.450;-2.624;2022-09-16T04:30:20;11.30;99.90
24148;DHT22;12309;51.450;-2.624;2022-09-16T04:32:46;11.00;99.90
24148;DHT22;12309;51.450;-2.624;2022-09-16T04:35:11;11.10;99.90
24148;DHT22;12309;51.450;-2.624;2022-09-16T04:37:37;11.00;99.90
24148;DHT22;12309;51.450;-2.624;2022-09-16T04:40:02;11.00;99.90
24148;DHT22;12309;51.450;-2.624;2022-09-16T04:44:54;11.10;99.90
24148;DHT22;12309;51.450;-2.624;2022-09-16T04:47:20;10.90;99.90
24148;DHT22;12309;51.450;-2.624;2022-09-16T04:52:11;11.10;99.90
24148;DHT22;12309;51.450;-2.624;2022-09-16T04:57:03;11.00;99.90
24148;DHT22;12309;51.450;-2.624;2022-09-16T05:04:21;10.90;99.90
24148;DHT22;12309;51.450;-2.624;2022-09-16T05:06:47;10.80;99.90
24148;DHT22;12309;51.450;-2.624;2022-09-16T05:11:40;10.70;99.90
24148;DHT22;12309;51.450;-2.624;2022-09-16T05:14:12;10.80;99.90
24148;DHT22;12309;51.450;-2.624;2022-09-16T05:16:37;10.40;99.90
24148;DHT22;12309;51.450;-2.624;2022-09-16T05:19:03;10.80;99.90
24148;DHT22;12309;51.450;-2.624;2022-09-16T05:21:32;10.70;99.90
24148;DHT22;12309;51.450;-2.624;2022-09-16T05:24:00;10.70;99.90
24148;DHT22;12309;51.450;-2.624;2022-09-16T05:26:28;10.90;99.90
24148;DHT22;12309;51.450;-2.624;2022-09-16T05:28:59;10.90;99.90
24148;DHT22;12309;51.450;-2.624;2022-09-16T05:31:26;10.70;99.90
24148;DHT22;12309;51.450;-2.624;2022-09-16T05:36:24;10.80;99.90
24148;DHT22;12309;51.450;-2.624;2022-09-16T05:41:16;10.30;99.90
24148;DHT22;12309;51.450;-2.624;2022-09-16T05:43:42;10.50;99.90
24148;DHT22;12309;51.450;-2.624;2022-09-16T05:46:10;10.70;99.90
24148;DHT22;12309;51.450;-2.624;2022-09-16T05:48:37;10.40;99.90
24148;DHT22;12309;51.450;-2.624;2022-09-16T05:51:05;10.30;99.90
24148;DHT22;12309;51.450;-2.624;2022-09-16T05:53:32;10.40;99.90
24148;DHT22;12309;51.450;-2.624;2022-09-16T05:56:00;10.60;99.90
24148;DHT22;12309;51.450;-2.624;2022-09-16T05:58:27;10.30;99.90
24148;DHT22;12309;51.450;-2.624;2022-09-16T06:01:01;10.40;99.90
24148;DHT22;12309;51.450;-2.624;2022-09-16T06:03:27;10.30;99.90
24148;DHT22;12309;51.450;-2.624;2022-09-16T06:06:05;10.30;99.90
24148;DHT22;12309;51.450;-2.624;2022-09-16T06:08:34;10.30;99.90
24148;DHT22;12309;51.450;-2.624;2022-09-16T06:11:01;10.10;99.90
24148;DHT22;12309;51.450;-2.624;2022-09-16T06:13:27;10.30;99.90
24148;DHT22;12309;51.450;-2.624;2022-09-16T06:15:53;10.50;99.90
24148;DHT22;12309;51.450;-2.624;2022-09-16T06:18:20;10.30;99.90
24148;DHT22;12309;51.450;-2.624;2022-09-16T06:20:46;10.30;99.90
24148;DHT22;12309;51.450;-2.624;2022-09-16T06:23:13;10.40;99.90
24148;DHT22;12309;51.450;-2.624;2022-09-16T06:28:07;10.50;99.90
24148;DHT22;12309;51.450;-2.624;2022-09-16T06:30:39;10.60;99.90
24148;DHT22;12309;51.450;-2.624;2022-09-16T06:33:05;10.30;99.90
24148;DHT22;12309;51.450;-2.624;2022-09-16T06:35:33;10.50;99.90
24148;DHT22;12309;51.450;-2.624;2022-09-16T06:40:26;10.50;99.90
24148;DHT22;12309;51.450;-2.624;2022-09-16T06:42:52;10.60;99.90
24148;DHT22;12309;51.450;-2.624;2022-09-16T06:45:21;10.70;99.90
24148;DHT22;12309;51.450;-2.624;2022-09-16T06:47:47;10.50;99.90
24148;DHT22;12309;51.450;-2.624;2022-09-16T06:50:13;10.90;99.90
24148;DHT22;12309;51.450;-2.624;2022-09-16T06:52:38;10.70;99.90
24148;DHT22;12309;51.450;-2.624;2022-09-16T06:55:04;10.70;99.90
24148;DHT22;12309;51.450;-2.624;2022-09-16T06:57:30;11.10;99.90
24148;DHT22;12309;51.450;-2.624;2022-09-16T06:59:56;11.00;99.90
24148;DHT22;12309;51.450;-2.624;2022-09-16T07:02:22;10.90;99.90
24148;DHT22;12309;51.450;-2.624;2022-09-16T07:04:48;11.00;99.90
24148;DHT22;12309;51.450;-2.624;2022-09-16T07:07:14;11.10;99.90
24148;DHT22;12309;51.450;-2.624;2022-09-16T07:09:39;11.10;99.90
24148;DHT22;12309;51.450;-2.624;2022-09-16T07:12:06;11.20;99.90
24148;DHT22;12309;51.450;-2.624;2022-09-16T07:14:32;11.20;99.90
24148;DHT22;12309;51.450;-2.624;2022-09-16T07:19:25;11.40;99.90
24148;DHT22;12309;51.450;-2.624;2022-09-16T07:21:50;11.60;99.90
24148;DHT22;12309;51.450;-2.624;2022-09-16T07:24:16;11.60;99.90
24148;DHT22;12309;51.450;-2.624;2022-09-16T07:26:43;11.60;99.90
24148;DHT22;12309;51.450;-2.624;2022-09-16T07:29:14;11.90;99.90
24148;DHT22;12309;51.450;-2.624;2022-09-16T07:31:40;12.10;99.90
24148;DHT22;12309;51.450;-2.624;2022-09-16T07:34:08;12.20;99.90
24148;DHT22;12309;51.450;-2.624;2022-09-16T07:36:45;12.20;99.90
24148;DHT22;12309;51.450;-2.624;2022-09-16T07:39:13;12.30;99.90
24148;DHT22;12309;51.450;-2.624;2022-09-16T07:41:41;12.60;99.90
24148;DHT22;12309;51.450;-2.624;2022-09-16T07:44:08;12.60;99.90
24148;DHT22;12309;51.450;-2.624;2022-09-16T07:49:04;13.00;99.90
24148;DHT22;12309;51.450;-2.624;2022-09-16T07:51:30;12.80;99.90
24148;DHT22;12309;51.450;-2.624;2022-09-16T07:53:58;13.00;99.90
24148;DHT22;12309;51.450;-2.624;2022-09-16T07:56:25;13.10;99.90
24148;DHT22;12309;51.450;-2.624;2022-09-16T07:58:52;13.40;99.90
24148;DHT22;12309;51.450;-2.624;2022-09-16T08:01:18;13.30;99.90
24148;DHT22;12309;51.450;-2.624;2022-09-16T08:03:45;13.40;99.90
24148;DHT22;12309;51.450;-2.624;2022-09-16T08:06:13;13.30;99.90
24148;DHT22;12309;51.450;-2.624;2022-09-16T08:08:39;13.60;99.90
24148;DHT22;12309;51.450;-2.624;2022-09-16T08:11:06;13.70;99.90
24148;DHT22;12309;51.450;-2.624;2022-09-16T08:13:33;13.80;99.90
24148;DHT22;12309;51.450;-2.624;2022-09-16T08:16:04;13.90;99.90
24148;DHT22;12309;51.450;-2.624;2022-09-16T08:18:31;14.00;99.90
24148;DHT22;12309;51.450;-2.624;2022-09-16T08:20:56;14.20;99.90
24148;DHT22;12309;51.450;-2.624;2022-09-16T08:23:24;15.80;99.90
24148;DHT22;12309;51.450;-2.624;2022-09-16T08:25:59;17.70;99.90
24148;DHT22;12309;51.450;-2.624;2022-09-16T08:28:25;19.30;99.90
24148;DHT22;12309;51.450;-2.624;2022-09-16T08:30:51;19.20;99.90
24148;DHT22;12309;51.450;-2.624;2022-09-16T08:33:17;20.60;99.90
24148;DHT22;12309;51.450;-2.624;2022-09-16T08:35:46;21.10;99.90
24148;DHT22;12309;51.450;-2.624;2022-09-16T08:38:12;21.90;99.90
24148;DHT22;12309;51.450;-2.624;2022-09-16T08:40:43;22.90;99.90
24148;DHT22;12309;51.450;-2.624;2022-09-16T08:43:20;23.60;99.90
24148;DHT22;12309;51.450;-2.624;2022-09-16T08:48:45;24.00;99.90
24148;DHT22;12309;51.450;-2.624;2022-09-16T08:51:17;24.00;99.90
24148;DHT22;12309;51.450;-2.624;2022-09-16T08:53:56;23.80;99.90
24148;DHT22;12309;51.450;-2.624;2022-09-16T08:56:24;23.30;99.90
24148;DHT22;12309;51.450;-2.624;2022-09-16T08:58:54;22.20;99.90
24148;DHT22;12309;51.450;-2.624;2022-09-16T09:01:44;20.70;99.90
24148;DHT22;12309;51.450;-2.624;2022-09-16T09:04:12;20.70;99.90
24148;DHT22;12309;51.450;-2.624;2022-09-16T09:14:34;22.70;99.90
24148;DHT22;12309;51.450;-2.624;2022-09-16T09:19:42;21.60;99.90
24148;DHT22;12309;51.450;-2.624;2022-09-16T09:31:05;19.40;99.90
24148;DHT22;12309;51.450;-2.624;2022-09-16T09:33:43;18.90;99.90
24148;DHT22;12309;51.450;-2.624;2022-09-16T09:41:40;19.30;99.90
24148;DHT22;12309;51.450;-2.624;2022-09-16T09:47:38;22.10;99.90
24148;DHT22;12309;51.450;-2.624;2022-09-16T09:50:28;21.70;99.90
24148;DHT22;12309;51.450;-2.624;2022-09-16T09:55:36;23.10;99.90
24148;DHT22;12309;51.450;-2.624;2022-09-16T09:58:20;23.70;99.90
24148;DHT22;12309;51.450;-2.624;2022-09-16T10:00:48;23.30;99.90
24148;DHT22;12309;51.450;-2.624;2022-09-16T10:03:16;23.40;99.90
24148;DHT22;12309;51.450;-2.624;2022-09-16T10:05:43;23.50;99.90
24148;DHT22;12309;51.450;-2.624;2022-09-16T10:10:55;25.50;99.90
24148;DHT22;12309;51.450;-2.624;2022-09-16T10:13:22;24.50;99.90
24148;DHT22;12309;51.450;-2.624;2022-09-16T10:15:51;23.60;99.90
24148;DHT22;12309;51.450;-2.624;2022-09-16T10:18:20;22.30;99.90
24148;DHT22;12309;51.450;-2.624;2022-09-16T10:21:14;23.20;99.90
24148;DHT22;12309;51.450;-2.624;2022-09-16T10:23:51;23.30;99.90
24148;DHT22;12309;51.450;-2.624;2022-09-16T10:26:22;24.00;99.90
24148;DHT22;12309;51.450;-2.624;2022-09-16T10:29:10;23.40;99.90
24148;DHT22;12309;51.450;-2.624;2022-09-16T10:31:38;22.20;99.90
24148;DHT22;12309;51.450;-2.624;2022-09-16T10:34:15;23.10;99.90
24148;DHT22;12309;51.450;-2.624;2022-09-16T10:36:42;21.80;99.90
24148;DHT22;12309;51.450;-2.624;2022-09-16T10:39:21;22.60;99.90
24148;DHT22;12309;51.450;-2.624;2022-09-16T10:41:47;22.80;99.90
24148;DHT22;12309;51.450;-2.624;2022-09-16T10:44:19;21.90;99.90
24148;DHT22;12309;51.450;-2.624;2022-09-16T10:47:03;20.90;99.90
24148;DHT22;12309;51.450;-2.624;2022-09-16T10:49:38;21.40;99.90
24148;DHT22;12309;51.450;-2.624;2022-09-16T10:52:21;23.30;99.90
24148;DHT22;12309;51.450;-2.624;2022-09-16T10:54:47;23.80;99.90
24148;DHT22;12309;51.450;-2.624;2022-09-16T10:57:31;23.30;99.90
24148;DHT22;12309;51.450;-2.624;2022-09-16T11:18:41;22.80;99.90
24148;DHT22;12309;51.450;-2.624;2022-09-16T11:21:39;24.00;99.90
24148;DHT22;12309;51.450;-2.624;2022-09-16T11:24:45;25.20;99.90
24148;DHT22;12309;51.450;-2.624;2022-09-16T11:40:59;21.80;99.90
24148;DHT22;12309;51.450;-2.624;2022-09-16T11:43:56;21.80;99.90
24148;DHT22;12309;51.450;-2.624;2022-09-16T11:49:26;20.80;99.90
24148;DHT22;12309;51.450;-2.624;2022-09-16T11:57:30;20.70;99.90
24148;DHT22;12309;51.450;-2.624;2022-09-16T11:59:58;19.40;99.90
24148;DHT22;12309;51.450;-2.624;2022-09-16T12:05:51;20.50;99.90
24148;DHT22;12309;51.450;-2.624;2022-09-16T12:10:56;20.00;99.90
24148;DHT22;12309;51.450;-2.624;2022-09-16T12:13:37;20.60;99.90
24148;DHT22;12309;51.450;-2.624;2022-09-16T12:16:33;20.80;99.90
24148;DHT22;12309;51.450;-2.624;2022-09-16T12:19:08;20.70;99.90
24148;DHT22;12309;51.450;-2.624;2022-09-16T12:21:41;20.50;99.90
24148;DHT22;12309;51.450;-2.624;2022-09-16T12:24:54;20.40;99.90
24148;DHT22;12309;51.450;-2.624;2022-09-16T12:30:18;21.80;99.90
24148;DHT22;12309;51.450;-2.624;2022-09-16T12:33:13;23.80;99.90
24148;DHT22;12309;51.450;-2.624;2022-09-16T12:35:51;25.50;99.90
24148;DHT22;12309;51.450;-2.624;2022-09-16T12:38:19;26.10;99.90
24148;DHT22;12309;51.450;-2.624;2022-09-16T12:48:49;25.50;99.90
24148;DHT22;12309;51.450;-2.624;2022-09-16T12:51:48;25.50;99.90
24148;DHT22;12309;51.450;-2.624;2022-09-16T13:00:21;21.90;99.90
24148;DHT22;12309;51.450;-2.624;2022-09-16T13:02:51;20.90;99.90
24148;DHT22;12309;51.450;-2.624;2022-09-16T13:05:32;20.10;99.90
24148;DHT22;12309;51.450;-2.624;2022-09-16T13:08:07;21.80;99.90
24148;DHT22;12309;51.450;-2.624;2022-09-16T13:10:43;25.30;99.90
24148;DHT22;12309;51.450;-2.624;2022-09-16T13:13:19;26.40;99.90
24148;DHT22;12309;51.450;-2.624;2022-09-16T13:15:58;26.60;99.90
24148;DHT22;12309;51.450;-2.624;2022-09-16T13:18:36;26.10;99.90
24148;DHT22;12309;51.450;-2.624;2022-09-16T13:21:28;27.20;99.90
24148;DHT22;12309;51.450;-2.624;2022-09-16T13:24:03;26.90;99.90
24148;DHT22;12309;51.450;-2.624;2022-09-16T13:26:41;27.40;99.90
24148;DHT22;12309;51.450;-2.624;2022-09-16T13:31:58;27.30;99.90
24148;DHT22;12309;51.450;-2.624;2022-09-16T13:34:23;27.10;99.90
24148;DHT22;12309;51.450;-2.624;2022-09-16T13:36:49;26.00;99.90
24148;DHT22;12309;51.450;-2.624;2022-09-16T13:39:28;25.10;99.90
24148;DHT22;12309;51.450;-2.624;2022-09-16T13:41:54;24.30;99.90
24148;DHT22;12309;51.450;-2.624;2022-09-16T13:44:40;22.00;99.90
24148;DHT22;12309;51.450;-2.624;2022-09-16T13:49:49;21.80;99.90
24148;DHT22;12309;51.450;-2.624;2022-09-16T13:52:28;21.10;99.90
24148;DHT22;12309;51.450;-2.624;2022-09-16T13:54:55;20.30;99.90
24148;DHT22;12309;51.450;-2.624;2022-09-16T13:57:57;20.00;99.90
24148;DHT22;12309;51.450;-2.624;2022-09-16T14:00:26;20.70;99.90
24148;DHT22;12309;51.450;-2.624;2022-09-16T14:05:54;24.30;99.90
24148;DHT22;12309;51.450;-2.624;2022-09-16T14:14:16;26.50;99.90
24148;DHT22;12309;51.450;-2.624;2022-09-16T14:16:45;26.70;99.90
24148;DHT22;12309;51.450;-2.624;2022-09-16T14:19:27;27.40;99.90
24148;DHT22;12309;51.450;-2.624;2022-09-16T14:22:13;27.80;99.90
24148;DHT22;12309;51.450;-2.624;2022-09-16T14:24:41;27.70;99.90
24148;DHT22;12309;51.450;-2.624;2022-09-16T14:32:22;29.40;99.90
24148;DHT22;12309;51.450;-2.624;2022-09-16T14:34:48;29.50;99.90
24148;DHT22;12309;51.450;-2.624;2022-09-16T14:37:18;28.40;99.90
24148;DHT22;12309;51.450;-2.624;2022-09-16T14:39:45;27.40;99.90
24148;DHT22;12309;51.450;-2.624;2022-09-16T14:42:17;27.60;99.90
24148;DHT22;12309;51.450;-2.624;2022-09-16T14:44:52;26.90;99.90
24148;DHT22;12309;51.450;-2.624;2022-09-16T14:47:37;26.10;99.90
24148;DHT22;12309;51.450;-2.624;2022-09-16T14:50:11;26.10;99.90
24148;DHT22;12309;51.450;-2.624;2022-09-16T14:52:38;26.70;99.90
24148;DHT22;12309;51.450;-2.624;2022-09-16T14:55:13;27.30;99.90
24148;DHT22;12309;51.450;-2.624;2022-09-16T14:57:43;27.10;99.90
24148;DHT22;12309;51.450;-2.624;2022-09-16T15:00:13;27.70;99.90
24148;DHT22;12309;51.450;-2.624;2022-09-16T15:02:45;27.50;99.90
24148;DHT22;12309;51.450;-2.624;2022-09-16T15:05:24;28.10;99.90
24148;DHT22;12309;51.450;-2.624;2022-09-16T15:07:53;27.60;99.90
24148;DHT22;12309;51.450;-2.624;2022-09-16T15:10:27;27.70;99.90
24148;DHT22;12309;51.450;-2.624;2022-09-16T15:15:26;28.80;99.90
24148;DHT22;12309;51.450;-2.624;2022-09-16T15:18:08;28.30;99.90
24148;DHT22;12309;51.450;-2.624;2022-09-16T15:20:39;28.00;99.90
24148;DHT22;12309;51.450;-2.624;2022-09-16T15:23:13;27.70;99.90
24148;DHT22;12309;51.450;-2.624;2022-09-16T15:26:13;27.20;99.90
24148;DHT22;12309;51.450;-2.624;2022-09-16T15:31:02;27.20;99.90
24148;DHT22;12309;51.450;-2.624;2022-09-16T15:33:35;27.50;99.90
24148;DHT22;12309;51.450;-2.624;2022-09-16T15:36:01;26.90;99.90
24148;DHT22;12309;51.450;-2.624;2022-09-16T15:38:28;26.90;99.90
24148;DHT22;12309;51.450;-2.624;2022-09-16T15:43:28;26.10;99.90
24148;DHT22;12309;51.450;-2.624;2022-09-16T15:45:59;26.80;99.90
24148;DHT22;12309;51.450;-2.624;2022-09-16T15:48:30;26.50;99.90
24148;DHT22;12309;51.450;-2.624;2022-09-16T15:51:17;26.20;99.90
24148;DHT22;12309;51.450;-2.624;2022-09-16T15:53:45;26.70;99.90
24148;DHT22;12309;51.450;-2.624;2022-09-16T15:56:32;26.70;99.90
24148;DHT22;12309;51.450;-2.624;2022-09-16T15:59:05;26.90;99.90
24148;DHT22;12309;51.450;-2.624;2022-09-16T16:01:46;26.00;99.90
24148;DHT22;12309;51.450;-2.624;2022-09-16T16:04:12;25.80;99.90
24148;DHT22;12309;51.450;-2.624;2022-09-16T16:06:59;25.10;99.90
24148;DHT22;12309;51.450;-2.624;2022-09-16T16:12:06;24.30;99.90
24148;DHT22;12309;51.450;-2.624;2022-09-16T16:14:33;24.80;99.90
24148;DHT22;12309;51.450;-2.624;2022-09-16T16:17:15;25.10;99.90
24148;DHT22;12309;51.450;-2.624;2022-09-16T16:19:43;25.70;99.90
24148;DHT22;12309;51.450;-2.624;2022-09-16T16:22:09;25.50;99.90
24148;DHT22;12309;51.450;-2.624;2022-09-16T16:24:34;25.20;99.90
24148;DHT22;12309;51.450;-2.624;2022-09-16T16:27:00;25.30;99.90
24148;DHT22;12309;51.450;-2.624;2022-09-16T16:32:12;25.20;99.90
24148;DHT22;12309;51.450;-2.624;2022-09-16T16:34:40;25.60;99.90
24148;DHT22;12309;51.450;-2.624;2022-09-16T16:37:07;25.60;99.90
24148;DHT22;12309;51.450;-2.624;2022-09-16T16:39:34;25.50;99.90
24148;DHT22;12309;51.450;-2.624;2022-09-16T16:41:59;25.70;99.90
24148;DHT22;12309;51.450;-2.624;2022-09-16T16:44:25;25.40;99.90
24148;DHT22;12309;51.450;-2.624;2022-09-16T16:46:52;25.40;99.90
24148;DHT22;12309;51.450;-2.624;2022-09-16T16:51:47;24.60;99.90
24148;DHT22;12309;51.450;-2.624;2022-09-16T16:56:39;24.40;99.90
24148;DHT22;12309;51.450;-2.624;2022-09-16T16:59:06;24.40;99.90
24148;DHT22;12309;51.450;-2.624;2022-09-16T17:11:19;23.80;99.90
24148;DHT22;12309;51.450;-2.624;2022-09-16T17:13:47;23.80;99.90
24148;DHT22;12309;51.450;-2.624;2022-09-16T17:16:16;23.90;99.90
24148;DHT22;12309;51.450;-2.624;2022-09-16T17:21:32;23.30;99.90
24148;DHT22;12309;51.450;-2.624;2022-09-16T17:23:58;22.60;99.90
24148;DHT22;12309;51.450;-2.624;2022-09-16T17:26:24;22.10;99.90
24148;DHT22;12309;51.450;-2.624;2022-09-16T17:28:51;21.60;99.90
24148;DHT22;12309;51.450;-2.624;2022-09-16T17:31:20;21.30;99.90
24148;DHT22;12309;51.450;-2.624;2022-09-16T17:33:47;20.70;99.90
24148;DHT22;12309;51.450;-2.624;2022-09-16T17:36:15;21.20;99.90
24148;DHT22;12309;51.450;-2.624;2022-09-16T17:38:42;20.30;99.90
24148;DHT22;12309;51.450;-2.624;2022-09-16T17:41:14;20.20;99.90
24148;DHT22;12309;51.450;-2.624;2022-09-16T17:43:40;19.60;99.90
24148;DHT22;12309;51.450;-2.624;2022-09-16T17:46:11;19.30;99.90
24148;DHT22;12309;51.450;-2.624;2022-09-16T17:56:21;17.70;99.90
24148;DHT22;12309;51.450;-2.624;2022-09-16T18:01:19;17.60;99.90
24148;DHT22;12309;51.450;-2.624;2022-09-16T18:03:46;17.50;99.90
24148;DHT22;12309;51.450;-2.624;2022-09-16T18:06:21;17.40;99.90
24148;DHT22;12309;51.450;-2.624;2022-09-16T18:08:48;17.40;99.90
24148;DHT22;12309;51.450;-2.624;2022-09-16T18:11:15;17.20;99.90
24148;DHT22;12309;51.450;-2.624;2022-09-16T18:13:41;17.30;99.90
24148;DHT22;12309;51.450;-2.624;2022-09-16T18:16:09;17.00;99.90
24148;DHT22;12309;51.450;-2.624;2022-09-16T18:18:36;17.10;99.90
24148;DHT22;12309;51.450;-2.624;2022-09-16T18:21:04;17.00;99.90
24148;DHT22;12309;51.450;-2.624;2022-09-16T18:26:01;16.90;99.90
24148;DHT22;12309;51.450;-2.624;2022-09-16T18:28:27;16.60;99.90
24148;DHT22;12309;51.450;-2.624;2022-09-16T18:31:04;16.60;99.90
24148;DHT22;12309;51.450;-2.624;2022-09-16T18:33:30;16.60;99.90
24148;DHT22;12309;51.450;-2.624;2022-09-16T18:36:01;16.50;99.90
24148;DHT22;12309;51.450;-2.624;2022-09-16T18:38:31;16.50;99.90
24148;DHT22;12309;51.450;-2.624;2022-09-16T18:41:12;16.30;99.90
24148;DHT22;12309;51.450;-2.624;2022-09-16T18:43:40;16.20;99.90
24148;DHT22;12309;51.450;-2.624;2022-09-16T18:46:17;15.90;99.90
24148;DHT22;12309;51.450;-2.624;2022-09-16T18:48:45;15.90;99.90
24148;DHT22;12309;51.450;-2.624;2022-09-16T18:53:52;15.70;99.90
24148;DHT22;12309;51.450;-2.624;2022-09-16T18:56:20;15.70;99.90
24148;DHT22;12309;51.450;-2.624;2022-09-16T18:58:47;15.70;99.90
24148;DHT22;12309;51.450;-2.624;2022-09-16T19:03:52;15.70;99.90
24148;DHT22;12309;51.450;-2.624;2022-09-16T19:06:18;15.20;99.90
24148;DHT22;12309;51.450;-2.624;2022-09-16T19:08:44;15.10;99.90
24148;DHT22;12309;51.450;-2.624;2022-09-16T19:11:11;15.30;99.90
24148;DHT22;12309;51.450;-2.624;2022-09-16T19:16:04;15.10;99.90
24148;DHT22;12309;51.450;-2.624;2022-09-16T19:23:24;14.90;99.90
24148;DHT22;12309;51.450;-2.624;2022-09-16T19:25:50;14.90;99.90
24148;DHT22;12309;51.450;-2.624;2022-09-16T19:28:16;15.00;99.90
24148;DHT22;12309;51.450;-2.624;2022-09-16T19:33:08;14.60;99.90
24148;DHT22;12309;51.450;-2.624;2022-09-16T19:35:33;14.60;99.90
24148;DHT22;12309;51.450;-2.624;2022-09-16T19:38:00;14.50;99.90
24148;DHT22;12309;51.450;-2.624;2022-09-16T19:40:26;14.50;99.90
24148;DHT22;12309;51.450;-2.624;2022-09-16T19:42:53;14.40;99.90
24148;DHT22;12309;51.450;-2.624;2022-09-16T19:52:37;14.10;99.90
24148;DHT22;12309;51.450;-2.624;2022-09-16T19:55:06;14.10;99.90
24148;DHT22;12309;51.450;-2.624;2022-09-16T20:02:25;14.00;99.90
24148;DHT22;12309;51.450;-2.624;2022-09-16T20:09:45;13.70;99.90
24148;DHT22;12309;51.450;-2.624;2022-09-16T20:12:12;13.70;99.90
24148;DHT22;12309;51.450;-2.624;2022-09-16T20:26:53;13.40;99.90
24148;DHT22;12309;51.450;-2.624;2022-09-16T20:29:20;13.50;99.90
24148;DHT22;12309;51.450;-2.624;2022-09-16T20:31:47;13.30;99.90
24148;DHT22;12309;51.450;-2.624;2022-09-16T20:34:13;13.20;99.90